createdAt,value
2019-02-06T00:01:27.307Z,10.77
2019-02-06T00:06:44.719Z,10.90
2019-02-06T00:09:13.493Z,11.73
2019-02-06T00:11:41.271Z,12.10
2019-02-06T00:14:09.191Z,10.83
2019-02-06T00:16:39.219Z,12.57
2019-02-06T00:19:07.190Z,12.80
2019-02-06T00:21:35.428Z,12.83
2019-02-06T00:24:03.479Z,13.03
2019-02-06T00:26:31.156Z,13.40
2019-02-06T00:28:59.277Z,14.13
2019-02-06T00:31:26.964Z,12.53
2019-02-06T00:33:54.640Z,12.83
2019-02-06T00:36:22.419Z,13.80
2019-02-06T00:38:50.711Z,13.77
2019-02-06T00:41:18.791Z,13.80
2019-02-06T00:43:46.813Z,15.23
2019-02-06T00:46:14.816Z,14.50
2019-02-06T00:48:42.553Z,13.07
2019-02-06T00:51:10.227Z,16.10
2019-02-06T00:53:37.972Z,16.20
2019-02-06T00:56:06.164Z,15.60
2019-02-06T00:58:33.946Z,15.37
2019-02-06T01:01:01.776Z,15.40
2019-02-06T01:03:29.792Z,18.50
2019-02-06T01:08:50.677Z,20.17
2019-02-06T01:11:18.565Z,17.40
2019-02-06T01:13:46.192Z,21.53
2019-02-06T01:16:14.397Z,18.57
2019-02-06T01:18:42.016Z,18.63
2019-02-06T01:21:09.678Z,19.53
2019-02-06T01:23:37.320Z,19.03
2019-02-06T01:26:05.020Z,22.40
2019-02-06T01:28:32.932Z,23.43
2019-02-06T01:31:06.458Z,20.73
2019-02-06T01:33:34.100Z,21.43
2019-02-06T01:36:01.740Z,22.60
2019-02-06T01:38:29.406Z,21.77
2019-02-06T01:43:32.984Z,24.63
2019-02-06T01:46:00.628Z,24.47
2019-02-06T01:48:28.232Z,26.13
2019-02-06T01:50:55.907Z,25.80
2019-02-06T01:53:23.787Z,26.57
2019-02-06T01:55:51.704Z,28.63
2019-02-06T01:58:19.506Z,30.23
2019-02-06T02:00:47.163Z,32.73
2019-02-06T02:03:14.759Z,30.67
2019-02-06T02:05:42.643Z,29.50
2019-02-06T02:11:00.635Z,27.83
2019-02-06T02:13:35.856Z,30.53
2019-02-06T02:16:11.691Z,29.73
2019-02-06T02:18:47.438Z,29.67
2019-02-06T02:21:21.508Z,29.30
2019-02-06T02:23:58.268Z,30.20
2019-02-06T02:26:34.775Z,28.73
2019-02-06T02:29:10.757Z,30.83
2019-02-06T02:31:45.994Z,29.20
2019-02-06T02:34:21.003Z,31.23
2019-02-06T02:36:55.032Z,30.87
2019-02-06T02:39:28.695Z,31.80
2019-02-06T02:42:03.986Z,37.00
2019-02-06T02:44:38.087Z,34.43
2019-02-06T02:47:12.257Z,33.87
2019-02-06T02:49:47.810Z,30.23
2019-02-06T02:52:25.427Z,31.70
2019-02-06T02:54:59.458Z,31.50
2019-02-06T02:57:37.738Z,31.87
2019-02-06T03:00:15.007Z,36.77
2019-02-06T03:03:03.043Z,41.67
2019-02-06T03:05:38.859Z,35.83
2019-02-06T03:08:12.721Z,36.00
2019-02-06T03:10:46.538Z,33.83
2019-02-06T03:13:20.211Z,35.57
2019-02-06T03:15:55.979Z,33.80
2019-02-06T03:18:31.991Z,34.53
2019-02-06T03:21:07.932Z,36.83
2019-02-06T03:23:40.527Z,32.97
2019-02-06T03:26:18.041Z,39.47
2019-02-06T03:28:52.318Z,38.10
2019-02-06T03:31:29.225Z,37.20
2019-02-06T03:34:04.718Z,35.10
2019-02-06T03:36:42.734Z,37.10
2019-02-06T03:39:21.173Z,38.47
2019-02-06T03:41:56.243Z,39.23
2019-02-06T03:44:31.841Z,41.33
2019-02-06T03:47:05.820Z,49.30
2019-02-06T03:49:42.773Z,42.90
2019-02-06T03:52:18.951Z,45.43
2019-02-06T03:54:52.937Z,50.47
2019-02-06T03:57:27.198Z,47.77
2019-02-06T04:00:01.142Z,42.13
2019-02-06T04:02:37.254Z,46.67
2019-02-06T04:05:11.469Z,46.83
2019-02-06T04:07:47.051Z,42.97
2019-02-06T04:10:23.282Z,41.17
2019-02-06T04:12:57.434Z,45.63
2019-02-06T04:15:38.749Z,44.60
2019-02-06T04:18:18.585Z,40.03
2019-02-06T04:20:57.569Z,41.10
2019-02-06T04:23:34.819Z,43.03
2019-02-06T04:26:13.429Z,43.43
2019-02-06T04:29:19.143Z,39.63
2019-02-06T04:31:57.801Z,40.57
2019-02-06T04:37:41.273Z,40.23
2019-02-06T04:43:28.770Z,38.47
2019-02-06T04:46:01.728Z,37.20
2019-02-06T04:48:35.814Z,40.67
2019-02-06T04:51:08.749Z,42.23
2019-02-06T04:53:44.159Z,40.43
2019-02-06T04:56:20.582Z,37.00
2019-02-06T04:58:56.554Z,40.67
2019-02-06T05:01:33.190Z,37.20
2019-02-06T05:04:11.159Z,38.77
2019-02-06T05:06:46.519Z,33.73
2019-02-06T05:09:22.725Z,40.63
2019-02-06T05:11:58.022Z,42.07
2019-02-06T05:14:43.022Z,42.03
2019-02-06T05:17:19.052Z,47.30
2019-02-06T05:19:53.173Z,44.47
2019-02-06T05:22:26.698Z,38.50
2019-02-06T05:25:01.019Z,41.60
2019-02-06T05:27:39.848Z,44.40
2019-02-06T05:30:22.207Z,49.17
2019-02-06T05:33:00.276Z,42.37
2019-02-06T05:35:34.370Z,48.50
2019-02-06T05:38:08.621Z,44.13
2019-02-06T05:40:44.548Z,42.97
2019-02-06T05:43:19.961Z,44.87
2019-02-06T05:45:56.381Z,44.97
2019-02-06T05:48:30.016Z,43.93
2019-02-06T05:51:03.243Z,48.03
2019-02-06T05:57:23.692Z,42.10
2019-02-06T06:03:10.287Z,43.37
2019-02-06T06:05:43.345Z,46.27
2019-02-06T06:08:16.504Z,44.70
2019-02-06T06:10:50.812Z,54.50
2019-02-06T06:13:48.862Z,44.63
2019-02-06T06:16:32.818Z,47.70
2019-02-06T06:19:05.741Z,43.90
2019-02-06T06:21:38.851Z,43.33
2019-02-06T06:24:11.890Z,42.10
2019-02-06T06:26:47.077Z,40.50
2019-02-06T06:29:22.711Z,40.67
2019-02-06T06:31:59.562Z,39.60
2019-02-06T06:34:45.497Z,38.50
2019-02-06T06:37:18.729Z,37.97
2019-02-06T06:39:53.899Z,38.27
2019-02-06T06:42:28.236Z,40.53
2019-02-06T06:45:08.378Z,35.97
2019-02-06T06:47:41.466Z,36.73
2019-02-06T06:50:15.776Z,39.83
2019-02-06T06:52:51.193Z,41.70
2019-02-06T06:55:24.399Z,42.80
2019-02-06T06:57:57.661Z,39.40
2019-02-06T07:00:33.243Z,39.00
2019-02-06T07:03:06.361Z,42.77
2019-02-06T07:05:39.558Z,41.30
2019-02-06T07:11:35.840Z,36.20
2019-02-06T07:14:11.387Z,36.87
2019-02-06T07:16:44.443Z,37.50
2019-02-06T07:19:18.582Z,37.63
2019-02-06T07:21:52.065Z,42.00
2019-02-06T07:24:25.109Z,41.00
2019-02-06T07:27:09.690Z,38.27
2019-02-06T07:29:42.780Z,36.17
2019-02-06T07:32:17.417Z,36.63
2019-02-06T07:34:50.503Z,39.80
2019-02-06T07:37:26.188Z,34.73
2019-02-06T07:40:01.808Z,39.20
2019-02-06T07:42:35.295Z,43.90
2019-02-06T07:45:08.705Z,35.30
2019-02-06T07:47:45.847Z,36.93
2019-02-06T07:50:27.384Z,41.33
2019-02-06T07:53:02.625Z,39.07
2019-02-06T07:55:39.939Z,37.30
2019-02-06T07:58:13.661Z,36.83
2019-02-06T08:00:49.418Z,36.23
2019-02-06T08:03:18.958Z,45.27
2019-02-06T08:05:47.020Z,41.50
2019-02-06T08:08:14.597Z,39.47
2019-02-06T08:10:43.241Z,37.63
2019-02-06T08:13:11.469Z,34.23
2019-02-06T08:15:39.105Z,39.70
2019-02-06T08:18:06.973Z,36.53
2019-02-06T08:20:35.413Z,35.33
2019-02-06T08:23:03.191Z,41.57
2019-02-06T08:25:30.879Z,37.93
2019-02-06T08:27:59.496Z,35.43
2019-02-06T08:30:31.071Z,37.00
2019-02-06T08:32:58.729Z,37.27
2019-02-06T08:35:26.735Z,41.50
2019-02-06T08:37:54.652Z,37.67
2019-02-06T08:40:22.627Z,38.80
2019-02-06T08:42:53.793Z,38.07
2019-02-06T08:45:21.700Z,37.73
2019-02-06T08:47:49.405Z,37.13
2019-02-06T08:50:17.618Z,39.50
2019-02-06T08:52:45.661Z,39.07
2019-02-06T08:55:15.652Z,40.50
2019-02-06T08:57:43.751Z,37.70
2019-02-06T09:00:13.718Z,39.53
2019-02-06T09:02:41.588Z,42.20
2019-02-06T09:05:09.585Z,38.30
2019-02-06T09:07:39.715Z,40.07
2019-02-06T09:10:08.891Z,37.07
2019-02-06T09:12:36.562Z,35.70
2019-02-06T09:15:06.093Z,42.30
2019-02-06T09:17:33.778Z,34.60
2019-02-06T09:20:01.867Z,35.57
2019-02-06T09:22:29.673Z,33.47
2019-02-06T09:24:57.940Z,35.80
2019-02-06T09:27:25.610Z,35.67
2019-02-06T09:29:53.498Z,35.17
2019-02-06T09:32:21.149Z,35.57
2019-02-06T09:34:49.588Z,48.10
2019-02-06T09:37:17.580Z,38.30
2019-02-06T09:39:45.580Z,36.53
2019-02-06T09:42:14.157Z,37.97
2019-02-06T10:53:26.550Z,32.83
2019-02-06T10:55:54.255Z,29.17
2019-02-06T10:58:21.938Z,31.60
2019-02-06T11:00:52.057Z,30.30
2019-02-06T11:06:18.830Z,33.13
2019-02-06T11:08:46.507Z,30.80
2019-02-06T11:11:14.183Z,32.57
2019-02-06T11:13:41.876Z,31.50
2019-02-06T11:16:09.525Z,30.57
2019-02-06T11:18:37.223Z,32.60
2019-02-06T11:21:04.883Z,30.57
2019-02-06T11:26:21.813Z,31.77
2019-02-06T11:28:49.787Z,29.03
2019-02-06T11:31:17.527Z,27.77
2019-02-06T11:33:45.199Z,29.87
2019-02-06T11:36:23.600Z,31.73
2019-02-06T11:38:42.594Z,30.63
2019-02-06T11:41:10.235Z,28.60
2019-02-06T11:51:54.388Z,27.30
2019-02-06T11:54:22.435Z,28.20
2019-02-06T11:56:51.313Z,24.90
2019-02-06T11:59:19.216Z,24.77
2019-02-06T12:01:50.848Z,27.73
2019-02-06T12:04:18.603Z,26.10
2019-02-06T12:06:46.688Z,25.13
2019-02-06T12:09:14.502Z,25.33
2019-02-06T12:11:42.311Z,26.93
2019-02-06T12:14:10.095Z,27.90
2019-02-06T12:16:37.911Z,26.30
2019-02-06T12:19:05.794Z,30.57
2019-02-06T12:21:33.639Z,28.63
2019-02-06T12:24:01.523Z,32.23
2019-02-06T12:26:29.436Z,31.03
2019-02-06T12:28:57.354Z,30.27
2019-02-06T12:31:25.262Z,29.63
2019-02-06T12:33:54.748Z,30.13
2019-02-06T12:36:22.747Z,35.17
2019-02-06T12:38:53.586Z,31.53
2019-02-06T12:41:20.488Z,34.87
2019-02-06T12:43:48.411Z,32.60
2019-02-06T12:46:16.670Z,33.63
2019-02-06T12:48:44.650Z,32.23
2019-02-06T12:51:12.581Z,33.07
2019-02-06T12:53:41.041Z,33.03
2019-02-06T12:56:08.897Z,32.47
2019-02-06T12:58:36.969Z,31.70
2019-02-06T13:01:05.118Z,33.37
2019-02-06T13:03:32.991Z,37.17
2019-02-06T13:06:01.240Z,36.20
2019-02-06T13:08:29.341Z,31.57
2019-02-06T13:10:57.403Z,33.53
2019-02-06T13:13:25.754Z,32.90
2019-02-06T13:15:54.638Z,32.33
2019-02-06T13:18:24.507Z,31.83
2019-02-06T13:20:55.823Z,35.03
2019-02-06T13:23:27.211Z,29.87
2019-02-06T13:26:01.541Z,28.73
2019-02-06T13:28:38.768Z,26.67
2019-02-06T13:31:15.212Z,25.83
2019-02-06T13:33:50.274Z,25.27
2019-02-06T13:40:52.096Z,23.97
2019-02-06T13:49:29.058Z,25.77
2019-02-06T13:51:57.040Z,22.67
2019-02-06T13:54:24.772Z,22.07
2019-02-06T13:56:52.923Z,22.57
2019-02-06T13:59:20.537Z,23.73
2019-02-06T14:01:48.376Z,23.83
2019-02-06T14:04:16.571Z,24.47
2019-02-06T14:06:44.179Z,23.80
2019-02-06T14:09:22.299Z,26.37
2019-02-06T14:11:44.842Z,27.33
2019-02-06T14:14:12.966Z,27.17
2019-02-06T14:22:05.893Z,29.43
2019-02-06T14:24:48.141Z,26.07
2019-02-06T14:27:37.826Z,25.47
2019-02-06T14:30:24.836Z,24.63
2019-02-06T14:33:11.576Z,25.30
2019-02-06T14:35:52.406Z,24.50
2019-02-06T14:38:40.030Z,24.07
2019-02-06T14:41:25.476Z,22.20
2019-02-06T14:44:21.515Z,23.03
2019-02-06T14:47:05.464Z,22.97
2019-02-06T14:49:50.544Z,24.57
2019-02-06T14:52:24.454Z,25.83
2019-02-06T14:55:05.216Z,24.27
2019-02-06T14:57:41.846Z,23.43
2019-02-06T15:00:21.967Z,23.33
2019-02-06T15:03:09.345Z,22.90
2019-02-06T15:05:41.404Z,23.10
2019-02-06T15:08:30.909Z,22.93
2019-02-06T15:14:20.867Z,21.70
2019-02-06T15:17:11.798Z,22.90
2019-02-06T15:19:45.658Z,24.93
2019-02-06T15:22:33.113Z,24.83
2019-02-06T15:25:13.529Z,26.37
2019-02-06T15:27:54.321Z,25.77
2019-02-06T15:30:39.918Z,24.27
2019-02-06T15:33:25.720Z,27.17
2019-02-06T15:36:00.559Z,27.07
2019-02-06T15:41:34.389Z,28.77
2019-02-06T15:44:25.984Z,28.00
2019-02-06T15:47:13.203Z,28.57
2019-02-06T15:49:53.464Z,29.57
2019-02-06T15:52:40.189Z,29.93
2019-02-06T15:55:28.559Z,31.60
2019-02-06T15:58:16.039Z,34.30
2019-02-06T16:01:03.421Z,32.03
2019-02-06T16:04:16.308Z,35.67
2019-02-06T16:06:55.029Z,35.07
2019-02-06T16:09:46.312Z,33.23
2019-02-06T16:12:17.040Z,35.97
2019-02-06T16:14:50.709Z,37.53
2019-02-06T16:17:39.854Z,33.70
2019-02-06T16:20:11.097Z,33.87
2019-02-06T16:23:02.112Z,33.50
2019-02-06T16:25:37.687Z,32.43
2019-02-06T16:28:31.047Z,34.50
2019-02-06T16:31:18.314Z,35.37
2019-02-06T16:34:08.863Z,38.43
2019-02-06T16:36:52.537Z,34.13
2019-02-06T16:39:39.850Z,33.37
2019-02-06T16:42:36.484Z,32.53
2019-02-06T16:45:26.172Z,31.63
2019-02-06T16:50:43.351Z,31.13
2019-02-06T16:53:30.658Z,33.20
2019-02-06T16:56:23.908Z,39.75
2019-02-06T16:59:11.135Z,32.63
2019-02-06T17:01:58.819Z,32.20
2019-02-06T17:04:46.102Z,30.93
2019-02-06T17:07:29.788Z,31.27
2019-02-06T17:10:20.294Z,32.07
2019-02-06T17:13:02.038Z,32.63
2019-02-06T17:15:54.689Z,33.07
2019-02-06T17:18:45.109Z,33.80
2019-02-06T17:21:50.545Z,35.77
2019-02-06T17:24:36.010Z,35.87
2019-02-06T17:27:10.063Z,36.27
2019-02-06T17:29:46.331Z,39.50
2019-02-06T17:32:33.604Z,37.57
2019-02-06T17:35:23.684Z,40.13
2019-02-06T17:38:08.688Z,40.37
2019-02-06T17:40:58.957Z,40.47
2019-02-06T17:43:34.333Z,38.30
2019-02-06T17:46:27.464Z,39.23
2019-02-06T17:49:17.423Z,39.57
2019-02-06T17:52:19.818Z,40.43
2019-02-06T17:54:52.396Z,40.47
2019-02-06T17:57:20.604Z,38.33
2019-02-06T17:59:48.278Z,39.33
2019-02-06T18:02:16.335Z,39.87
2019-02-06T18:04:44.771Z,44.93
2019-02-06T18:07:12.555Z,43.57
2019-02-06T18:13:05.029Z,43.40
2019-02-06T18:15:32.960Z,44.37
2019-02-06T18:18:01.488Z,43.10
2019-02-06T18:20:29.167Z,42.20
2019-02-06T18:22:57.111Z,41.03
2019-02-06T18:25:25.046Z,44.33
2019-02-06T18:33:26.294Z,42.70
2019-02-06T18:35:53.953Z,43.53
2019-02-06T18:38:21.632Z,47.97
2019-02-06T18:40:49.561Z,45.93
2019-02-06T18:43:17.255Z,47.90
2019-02-06T18:45:44.874Z,50.30
2019-02-06T18:54:01.242Z,46.37
2019-02-06T18:56:28.938Z,45.37
2019-02-06T18:58:57.171Z,49.57
2019-02-06T19:01:26.071Z,44.50
2019-02-06T19:03:53.983Z,44.13
2019-02-06T19:06:21.852Z,45.57
2019-02-06T19:08:49.510Z,44.67
2019-02-06T19:11:17.434Z,46.23
2019-02-06T19:13:45.110Z,47.30
2019-02-06T19:16:12.881Z,46.37
2019-02-06T19:18:40.453Z,49.07
2019-02-06T19:21:08.385Z,49.67
2019-02-06T19:23:36.286Z,48.53
2019-02-06T19:26:04.049Z,51.40
2019-02-06T19:34:09.076Z,48.87
2019-02-06T19:36:37.105Z,46.37
2019-02-06T19:39:09.892Z,46.47
2019-02-06T19:44:43.063Z,44.50
2019-02-06T19:47:10.844Z,43.67
2019-02-06T19:52:28.240Z,42.53
2019-02-06T19:54:56.272Z,44.33
2019-02-06T19:57:26.029Z,44.63
2019-02-06T19:59:53.860Z,41.73
2019-02-06T20:02:21.647Z,41.33
2019-02-06T20:04:49.370Z,40.23
2019-02-06T20:07:17.085Z,46.57
2019-02-06T20:09:44.789Z,41.33
2019-02-06T20:12:12.523Z,45.83
2019-02-06T20:14:40.954Z,39.23
2019-02-06T20:17:08.607Z,41.63
2019-02-06T20:19:36.299Z,39.50
2019-02-06T20:22:04.339Z,40.80
2019-02-06T20:24:32.128Z,38.50
2019-02-06T20:27:00.098Z,39.87
2019-02-06T20:29:27.890Z,38.00
2019-02-06T20:31:55.664Z,37.90
2019-02-06T20:34:23.704Z,40.50
2019-02-06T20:36:51.548Z,40.27
2019-02-06T20:39:19.538Z,41.60
2019-02-06T20:41:47.325Z,40.37
2019-02-06T20:44:15.136Z,42.33
2019-02-06T20:46:42.849Z,41.17
2019-02-06T20:49:10.873Z,43.17
2019-02-06T20:51:38.534Z,38.50
2019-02-06T20:54:06.477Z,37.23
2019-02-06T20:56:34.115Z,51.35
2019-02-06T20:59:03.145Z,40.93
2019-02-06T21:01:31.323Z,42.13
2019-02-06T21:03:58.999Z,41.47
2019-02-06T21:06:26.882Z,41.90
2019-02-06T21:08:54.579Z,40.67
2019-02-06T21:11:22.182Z,40.93
2019-02-06T21:13:50.020Z,42.00
2019-02-06T21:16:17.692Z,39.07
2019-02-06T21:18:46.753Z,37.53
2019-02-06T21:21:14.339Z,36.40
2019-02-06T21:23:42.359Z,35.37
2019-02-06T21:26:10.022Z,35.53
2019-02-06T21:28:37.722Z,34.70
2019-02-06T21:31:05.557Z,37.23
2019-02-06T21:33:33.289Z,36.43
2019-02-06T21:36:01.076Z,37.00
2019-02-06T21:38:29.442Z,35.53
2019-02-06T21:40:57.554Z,33.07
2019-02-06T21:43:25.705Z,32.23
2019-02-06T21:45:53.563Z,34.90
2019-02-06T21:48:22.414Z,32.17
2019-02-06T21:50:50.240Z,32.97
2019-02-06T21:53:18.268Z,33.87
2019-02-06T21:55:46.291Z,34.17
2019-02-06T21:58:13.994Z,33.47
2019-02-06T22:00:41.720Z,32.37
2019-02-06T22:03:10.771Z,32.27
2019-02-06T22:05:39.394Z,31.20
2019-02-06T22:08:07.440Z,30.13
2019-02-06T22:10:35.115Z,31.27
2019-02-06T22:13:03.731Z,29.43
2019-02-06T22:15:31.407Z,28.27
2019-02-06T22:17:59.372Z,29.67
2019-02-06T22:20:27.296Z,28.87
2019-02-06T22:22:54.966Z,29.30
2019-02-06T22:25:22.741Z,28.63
2019-02-06T22:27:50.847Z,30.77
2019-02-06T22:30:22.374Z,29.40
2019-02-06T22:32:50.205Z,29.43
2019-02-06T22:35:17.881Z,29.57
2019-02-06T22:37:45.607Z,26.87
2019-02-06T22:40:14.510Z,27.57
2019-02-06T22:42:43.218Z,26.53
2019-02-06T22:45:19.436Z,25.80
2019-02-06T22:47:48.034Z,25.60
2019-02-06T22:50:16.738Z,24.13
2019-02-06T22:52:44.691Z,24.63
2019-02-06T22:55:12.429Z,24.40
2019-02-06T22:57:39.999Z,24.43
2019-02-06T23:00:24.284Z,24.27
2019-02-06T23:02:50.531Z,26.20
2019-02-06T23:05:18.130Z,23.23
2019-02-06T23:07:45.714Z,24.73
